createdAt,value
2018-10-12T00:01:06.759Z,69.00
2018-10-12T00:03:34.265Z,68.99
2018-10-12T00:06:01.724Z,69.09
2018-10-12T00:08:29.179Z,69.01
2018-10-12T00:10:56.652Z,69.36
2018-10-12T00:13:24.997Z,69.53
2018-10-12T00:15:52.448Z,69.88
2018-10-12T00:18:19.940Z,70.03
2018-10-12T00:20:47.397Z,70.16
2018-10-12T00:23:14.922Z,70.17
2018-10-12T00:25:42.452Z,70.10
2018-10-12T00:28:09.892Z,70.21
2018-10-12T00:30:37.364Z,70.31
2018-10-12T00:33:04.774Z,70.44
2018-10-12T00:35:32.831Z,70.51
2018-10-12T00:38:00.329Z,70.56
2018-10-12T00:40:28.929Z,70.44
2018-10-12T00:42:56.497Z,70.24
2018-10-12T00:45:23.933Z,70.08
2018-10-12T00:47:51.363Z,69.92
2018-10-12T00:50:18.857Z,69.85
2018-10-12T00:52:46.320Z,69.91
2018-10-12T00:55:13.776Z,70.00
2018-10-12T00:57:41.217Z,70.49
2018-10-12T01:00:08.651Z,70.96
2018-10-12T01:02:36.057Z,71.16
2018-10-12T01:05:03.532Z,71.22
2018-10-12T01:07:31.002Z,71.27
2018-10-12T01:09:58.512Z,71.30
2018-10-12T01:12:25.953Z,71.57
2018-10-12T01:14:53.363Z,71.84
2018-10-12T01:17:20.816Z,72.13
2018-10-12T01:19:48.234Z,72.41
2018-10-12T01:22:15.721Z,72.72
2018-10-12T01:24:43.134Z,72.81
2018-10-12T01:27:10.599Z,72.64
2018-10-12T01:29:38.040Z,72.52
2018-10-12T01:32:05.459Z,72.48
2018-10-12T01:34:32.977Z,72.67
2018-10-12T01:37:00.455Z,72.69
2018-10-12T01:39:27.885Z,72.69
2018-10-12T01:41:55.331Z,73.17
2018-10-12T01:44:22.839Z,73.49
2018-10-12T01:46:50.395Z,73.78
2018-10-12T01:49:17.864Z,73.90
2018-10-12T01:51:45.300Z,73.69
2018-10-12T01:54:13.368Z,73.32
2018-10-12T01:56:40.889Z,73.21
2018-10-12T01:59:08.394Z,73.22
2018-10-12T02:01:35.835Z,73.50
2018-10-12T02:04:03.241Z,73.69
2018-10-12T02:06:30.666Z,73.68
2018-10-12T02:08:58.082Z,73.34
2018-10-12T02:11:25.495Z,73.27
2018-10-12T02:13:52.984Z,73.22
2018-10-12T02:16:20.447Z,73.23
2018-10-12T02:18:47.916Z,73.47
2018-10-12T02:21:15.325Z,73.39
2018-10-12T02:23:42.795Z,73.26
2018-10-12T02:26:10.264Z,73.29
2018-10-12T02:28:37.744Z,73.46
2018-10-12T02:31:05.236Z,73.67
2018-10-12T02:33:32.982Z,73.80
2018-10-12T02:36:00.425Z,73.73
2018-10-12T02:38:27.874Z,73.69
2018-10-12T02:40:55.343Z,73.77
2018-10-12T02:43:22.818Z,74.14
2018-10-12T02:45:50.314Z,74.32
2018-10-12T02:48:17.838Z,74.64
2018-10-12T02:50:45.316Z,75.03
2018-10-12T02:53:12.819Z,75.19
2018-10-12T02:55:40.243Z,75.62
2018-10-12T02:58:07.748Z,75.96
2018-10-12T03:00:35.173Z,76.30
2018-10-12T03:03:02.600Z,76.29
2018-10-12T03:05:29.988Z,76.13
2018-10-12T03:07:57.482Z,76.00
2018-10-12T03:10:24.980Z,75.86
2018-10-12T03:12:52.532Z,75.65
2018-10-12T03:15:19.975Z,75.41
2018-10-12T03:17:47.426Z,75.57
2018-10-12T03:20:15.516Z,75.85
2018-10-12T03:22:42.934Z,75.94
2018-10-12T03:25:10.439Z,75.87
2018-10-12T03:27:37.916Z,75.69
2018-10-12T03:30:05.336Z,75.72
2018-10-12T03:32:32.825Z,75.58
2018-10-12T03:35:00.255Z,75.38
2018-10-12T03:37:27.656Z,75.28
2018-10-12T03:39:55.141Z,75.43
2018-10-12T03:42:22.541Z,75.32
2018-10-12T03:44:50.039Z,75.27
2018-10-12T03:47:17.448Z,75.37
2018-10-12T03:49:44.906Z,75.65
2018-10-12T03:52:12.392Z,75.76
2018-10-12T03:54:39.801Z,75.64
2018-10-12T03:57:07.203Z,75.76
2018-10-12T03:59:34.673Z,76.07
2018-10-12T04:02:02.215Z,76.18
2018-10-12T04:04:29.656Z,75.91
2018-10-12T04:06:57.107Z,76.04
2018-10-12T04:09:24.545Z,76.39
2018-10-12T04:11:52.063Z,76.36
2018-10-12T04:14:19.468Z,76.22
2018-10-12T04:16:46.916Z,76.42
2018-10-12T04:19:14.333Z,76.48
2018-10-12T04:21:41.784Z,76.71
2018-10-12T04:24:09.190Z,76.87
2018-10-12T04:26:36.659Z,77.09
2018-10-12T04:29:04.114Z,77.09
2018-10-12T04:31:31.507Z,77.01
2018-10-12T04:33:59.639Z,76.94
2018-10-12T04:36:27.135Z,76.74
2018-10-12T04:38:54.561Z,76.47
2018-10-12T04:41:22.054Z,76.18
2018-10-12T04:43:49.458Z,76.10
2018-10-12T04:46:16.907Z,76.04
2018-10-12T04:48:44.382Z,76.22
2018-10-12T04:51:11.806Z,76.17
2018-10-12T04:53:39.269Z,76.16
2018-10-12T04:56:06.727Z,76.20
2018-10-12T04:58:34.188Z,76.26
2018-10-12T05:01:01.683Z,76.43
2018-10-12T05:03:29.120Z,76.52
2018-10-12T05:05:56.542Z,76.34
2018-10-12T05:08:24.039Z,76.45
2018-10-12T05:10:51.620Z,76.67
2018-10-12T05:13:19.156Z,76.71
2018-10-12T05:15:46.826Z,76.70
2018-10-12T05:18:14.245Z,76.72
2018-10-12T05:20:41.716Z,76.78
2018-10-12T05:23:09.163Z,77.03
2018-10-12T05:25:36.725Z,77.21
2018-10-12T05:28:04.202Z,77.32
2018-10-12T05:30:31.755Z,77.25
2018-10-12T05:32:59.303Z,77.34
2018-10-12T05:35:26.775Z,77.52
2018-10-12T05:37:54.458Z,77.57
2018-10-12T05:40:21.883Z,77.70
2018-10-12T05:42:49.360Z,77.97
2018-10-12T05:45:16.826Z,77.80
2018-10-12T05:47:44.235Z,77.77
2018-10-12T05:50:11.732Z,77.66
2018-10-12T05:52:39.196Z,77.43
2018-10-12T05:55:06.754Z,77.25
2018-10-12T05:57:34.292Z,77.06
2018-10-12T06:00:01.856Z,76.87
2018-10-12T06:02:29.334Z,76.67
2018-10-12T06:04:56.805Z,76.24
2018-10-12T06:07:24.289Z,75.83
2018-10-12T06:09:51.930Z,75.02
2018-10-12T06:12:19.610Z,73.72
2018-10-12T06:14:47.081Z,73.03
2018-10-12T06:17:14.563Z,72.53
2018-10-12T06:19:41.979Z,72.72
2018-10-12T06:22:09.440Z,73.56
2018-10-12T06:24:37.004Z,73.89
2018-10-12T06:27:04.508Z,73.73
2018-10-12T06:29:32.003Z,73.27
2018-10-12T06:31:59.686Z,72.71
2018-10-12T06:34:27.166Z,72.32
2018-10-12T06:36:54.590Z,71.97
2018-10-12T06:39:22.032Z,72.15
2018-10-12T06:41:49.648Z,71.84
2018-10-12T06:44:17.034Z,71.14
2018-10-12T06:46:45.259Z,70.63
2018-10-12T06:49:12.780Z,70.40
2018-10-12T06:51:40.236Z,69.81
2018-10-12T06:54:07.703Z,69.41
2018-10-12T06:56:35.246Z,68.53
2018-10-12T06:59:02.857Z,67.73
2018-10-12T07:01:30.320Z,67.11
2018-10-12T07:03:57.855Z,65.51
2018-10-12T07:06:25.307Z,63.63
2018-10-12T07:08:52.857Z,61.73
2018-10-12T07:11:20.283Z,59.75
2018-10-12T07:13:47.767Z,58.10
2018-10-12T07:16:15.166Z,56.78
2018-10-12T07:18:42.889Z,55.30
2018-10-12T07:21:10.579Z,55.95
2018-10-12T07:23:38.060Z,57.11
2018-10-12T07:26:05.593Z,58.16
2018-10-12T07:28:33.025Z,59.33
2018-10-12T07:31:00.560Z,60.38
2018-10-12T07:33:27.996Z,60.29
2018-10-12T07:35:55.544Z,59.20
2018-10-12T07:38:22.985Z,56.67
2018-10-12T07:40:50.693Z,54.69
2018-10-12T07:43:18.193Z,52.08
2018-10-12T07:45:45.665Z,49.12
2018-10-12T07:48:12.777Z,48.21
2018-10-12T07:50:40.188Z,47.63
2018-10-12T07:53:07.788Z,46.09
2018-10-12T07:55:35.244Z,45.65
2018-10-12T07:58:02.818Z,45.18
2018-10-12T08:00:30.248Z,45.73
2018-10-12T08:02:57.699Z,47.38
2018-10-12T08:05:25.153Z,47.23
2018-10-12T08:07:52.607Z,46.68
2018-10-12T08:10:20.095Z,45.25
2018-10-12T08:12:47.588Z,44.89
2018-10-12T08:15:15.011Z,44.13
2018-10-12T08:17:42.571Z,43.53
2018-10-12T08:20:09.596Z,42.99
2018-10-12T08:22:37.199Z,42.13
2018-10-12T08:25:04.324Z,41.42
2018-10-12T08:27:31.357Z,41.08
2018-10-12T08:29:58.871Z,41.19
2018-10-12T08:32:25.844Z,42.25
2018-10-12T08:34:52.882Z,42.53
2018-10-12T08:37:19.832Z,41.98
2018-10-12T08:39:46.810Z,42.35
2018-10-12T08:42:14.266Z,40.87
2018-10-12T08:44:41.772Z,39.75
2018-10-12T08:47:09.299Z,39.20
2018-10-12T08:49:36.341Z,38.79
2018-10-12T08:52:03.365Z,38.78
2018-10-12T08:54:30.787Z,38.75
2018-10-12T08:56:57.798Z,39.20
2018-10-12T09:02:23.483Z,38.12
2018-10-12T09:04:50.980Z,37.15
2018-10-12T09:07:18.399Z,36.55
2018-10-12T09:09:46.142Z,37.18
2018-10-12T09:12:13.541Z,38.22
2018-10-12T09:14:40.997Z,39.37
2018-10-12T09:17:08.831Z,39.55
2018-10-12T09:19:36.900Z,38.86
2018-10-12T09:22:04.502Z,38.85
2018-10-12T09:24:32.447Z,38.18
2018-10-12T09:26:59.576Z,37.72
2018-10-12T09:29:26.546Z,37.87
2018-10-12T09:31:53.561Z,39.08
2018-10-12T09:34:20.786Z,39.35
2018-10-12T09:36:47.834Z,39.63
2018-10-12T09:39:16.250Z,39.10
2018-10-12T09:41:43.415Z,39.68
2018-10-12T09:44:10.496Z,39.77
2018-10-12T09:46:38.098Z,39.68
2018-10-12T09:49:05.696Z,40.54
2018-10-12T09:51:33.327Z,41.17
2018-10-12T09:54:00.922Z,42.11
2018-10-12T09:56:28.465Z,42.23
2018-10-12T09:58:55.986Z,42.66
2018-10-12T10:04:16.354Z,43.47
2018-10-12T10:06:44.091Z,43.12
2018-10-12T10:09:12.600Z,42.67
2018-10-12T10:11:40.165Z,42.97
2018-10-12T10:14:07.752Z,42.98
2018-10-12T10:16:35.241Z,42.80
2018-10-12T10:19:02.744Z,42.80
2018-10-12T10:21:30.286Z,42.72
2018-10-12T10:23:57.885Z,42.72
2018-10-12T10:26:25.470Z,42.28
2018-10-12T10:28:53.051Z,41.60
2018-10-12T10:31:21.429Z,42.10
2018-10-12T10:33:48.887Z,42.08
2018-10-12T10:36:16.307Z,42.18
2018-10-12T10:38:43.879Z,42.24
2018-10-12T10:41:11.311Z,41.88
2018-10-12T10:43:38.788Z,41.90
2018-10-12T10:46:06.425Z,42.12
2018-10-12T10:48:33.987Z,41.43
2018-10-12T10:51:01.457Z,41.18
2018-10-12T10:53:28.913Z,40.50
2018-10-12T10:55:56.357Z,40.70
2018-10-12T10:58:23.819Z,40.52
2018-10-12T11:00:51.294Z,40.64
2018-10-12T11:03:19.236Z,40.55
2018-10-12T11:05:46.697Z,40.46
2018-10-12T11:08:14.172Z,40.52
2018-10-12T11:10:41.674Z,40.75
2018-10-12T11:13:09.147Z,40.75
2018-10-12T11:15:36.561Z,40.09
2018-10-12T11:18:04.603Z,39.08
2018-10-12T11:20:32.936Z,38.45
2018-10-12T11:23:00.404Z,38.35
2018-10-12T11:25:27.900Z,38.17
2018-10-12T11:27:55.471Z,37.78
2018-10-12T11:30:23.026Z,37.15
2018-10-12T11:32:50.557Z,36.89
2018-10-12T11:35:18.693Z,37.01
2018-10-12T11:37:46.095Z,36.82
2018-10-12T11:40:13.701Z,36.55
2018-10-12T11:42:41.163Z,35.81
2018-10-12T11:45:08.778Z,35.21
2018-10-12T11:47:36.267Z,36.11
2018-10-12T11:50:03.908Z,36.08
2018-10-12T11:52:31.329Z,36.09
2018-10-12T11:54:58.779Z,35.59
2018-10-12T11:57:31.095Z,36.02
2018-10-12T11:59:58.551Z,36.14
2018-10-12T12:02:26.069Z,35.92
2018-10-12T12:04:53.596Z,36.46
2018-10-12T12:07:22.124Z,36.22
2018-10-12T12:09:49.580Z,35.99
2018-10-12T12:12:17.021Z,35.33
2018-10-12T12:14:45.056Z,34.73
2018-10-12T12:17:12.698Z,35.03
2018-10-12T12:19:40.235Z,35.45
2018-10-12T12:22:07.762Z,35.63
2018-10-12T12:24:35.215Z,35.12
2018-10-12T12:27:02.960Z,35.40
2018-10-12T12:29:30.478Z,35.10
2018-10-12T12:31:57.920Z,34.80
2018-10-12T12:34:25.419Z,35.13
2018-10-12T12:36:53.061Z,35.79
2018-10-12T12:39:21.735Z,36.50
2018-10-12T12:41:49.412Z,36.45
2018-10-12T12:44:17.707Z,36.37
2018-10-12T12:46:45.176Z,36.47
2018-10-12T12:49:13.012Z,36.95
2018-10-12T12:51:40.058Z,36.61
2018-10-12T12:54:08.039Z,36.28
2018-10-12T12:56:35.502Z,35.63
2018-10-12T12:59:03.344Z,35.44
2018-10-12T13:01:30.470Z,35.77
2018-10-12T13:03:57.938Z,35.89
2018-10-12T13:06:25.857Z,36.16
2018-10-12T13:08:53.244Z,35.90
2018-10-12T13:11:20.763Z,35.55
2018-10-12T13:13:48.291Z,35.37
2018-10-12T13:16:15.866Z,34.95
2018-10-12T13:18:43.357Z,34.13
2018-10-12T13:21:11.539Z,34.10
2018-10-12T13:23:39.056Z,34.04
2018-10-12T13:26:06.706Z,34.11
2018-10-12T13:28:33.970Z,33.89
2018-10-12T13:31:01.440Z,34.06
2018-10-12T13:33:29.115Z,34.08
2018-10-12T13:35:56.788Z,33.65
2018-10-12T13:38:24.464Z,33.04
2018-10-12T13:40:51.892Z,32.54
2018-10-12T13:43:19.358Z,32.01
2018-10-12T13:45:46.838Z,31.93
2018-10-12T13:48:14.303Z,32.02
2018-10-12T13:50:41.745Z,32.02
2018-10-12T13:53:09.234Z,32.38
2018-10-12T13:55:36.683Z,31.99
2018-10-12T13:58:04.158Z,31.27
2018-10-12T14:00:31.615Z,31.25
2018-10-12T14:02:59.142Z,31.30
2018-10-12T14:05:26.590Z,30.42
2018-10-12T14:07:54.096Z,29.82
2018-10-12T14:10:21.580Z,28.81
2018-10-12T14:12:49.039Z,27.57
2018-10-12T14:15:16.500Z,27.05
2018-10-12T14:17:44.000Z,26.33
2018-10-12T14:20:11.616Z,27.29
2018-10-12T14:22:39.098Z,28.29
2018-10-12T14:25:06.577Z,29.84
2018-10-12T14:27:34.150Z,28.89
2018-10-12T14:30:01.588Z,28.33
2018-10-12T14:32:29.117Z,27.86
2018-10-12T14:34:56.613Z,25.16
2018-10-12T14:37:23.662Z,22.37
2018-10-12T14:39:50.663Z,22.82
2018-10-12T14:42:17.718Z,22.94
2018-10-12T14:44:44.707Z,23.10
2018-10-12T14:47:11.649Z,22.35
2018-10-12T14:49:38.632Z,21.90
2018-10-12T14:52:05.675Z,21.98
2018-10-12T14:54:32.726Z,21.66
2018-10-12T14:56:59.774Z,21.78
2018-10-12T14:59:27.538Z,21.87
2018-10-12T15:01:54.556Z,21.58
2018-10-12T15:04:21.636Z,21.21
2018-10-12T15:06:48.623Z,21.75
2018-10-12T15:09:15.783Z,21.81
2018-10-12T15:11:42.799Z,22.69
2018-10-12T15:14:09.911Z,23.38
2018-10-12T15:16:37.085Z,23.83
2018-10-12T15:19:04.135Z,24.16
2018-10-12T15:21:31.170Z,23.91
2018-10-12T15:23:58.137Z,22.98
2018-10-12T15:26:25.101Z,22.90
2018-10-12T15:28:52.143Z,22.21
2018-10-12T15:31:19.263Z,21.96
2018-10-12T15:33:46.235Z,24.36
2018-10-12T15:36:13.319Z,28.47
2018-10-12T15:38:40.410Z,29.30
2018-10-12T15:41:07.446Z,26.97
2018-10-12T15:43:34.623Z,24.94
2018-10-12T15:46:02.284Z,23.67
2018-10-12T15:48:29.797Z,22.91
2018-10-12T15:50:57.288Z,22.50
2018-10-12T15:53:24.809Z,21.98
2018-10-12T15:55:52.371Z,21.64
2018-10-12T15:58:19.975Z,21.42
2018-10-12T16:00:47.584Z,21.64
2018-10-12T16:03:15.173Z,21.51
2018-10-12T16:05:42.799Z,21.34
2018-10-12T16:08:10.261Z,21.73
2018-10-12T16:10:37.741Z,22.53
2018-10-12T16:13:05.231Z,23.12
2018-10-12T16:15:32.797Z,23.98
2018-10-12T16:18:00.271Z,25.48
2018-10-12T16:20:27.713Z,27.64
2018-10-12T16:22:55.255Z,32.16
2018-10-12T16:28:21.521Z,38.64
2018-10-12T16:30:49.086Z,40.44
2018-10-12T16:33:16.572Z,41.84
2018-10-12T16:35:44.062Z,42.71
2018-10-12T16:38:12.342Z,43.36
2018-10-12T16:40:40.009Z,44.25
2018-10-12T16:43:07.560Z,44.83
2018-10-12T16:45:35.255Z,45.64
2018-10-12T16:48:02.749Z,46.67
2018-10-12T16:50:30.297Z,46.99
2018-10-12T16:52:57.930Z,47.08
2018-10-12T16:55:25.435Z,47.53
2018-10-12T16:57:53.113Z,47.57
2018-10-12T17:00:20.569Z,48.34
2018-10-12T17:02:48.235Z,48.85
2018-10-12T17:05:15.704Z,49.48
2018-10-12T17:07:43.163Z,49.84
2018-10-12T17:10:11.131Z,50.42
2018-10-12T17:12:38.610Z,51.11
2018-10-12T17:15:06.173Z,52.53
2018-10-12T17:17:33.726Z,54.17
2018-10-12T17:20:01.286Z,55.38
2018-10-12T17:22:28.723Z,56.25
2018-10-12T17:24:56.201Z,56.77
2018-10-12T17:27:23.674Z,57.15
2018-10-12T17:29:51.328Z,57.19
2018-10-12T17:32:19.678Z,57.06
2018-10-12T17:34:47.139Z,57.33
2018-10-12T17:37:14.687Z,58.97
2018-10-12T17:39:42.160Z,59.93
2018-10-12T17:42:09.668Z,60.73
2018-10-12T17:44:37.306Z,61.33
2018-10-12T17:47:04.768Z,61.77
2018-10-12T17:49:32.645Z,61.94
2018-10-12T17:52:00.131Z,62.25
2018-10-12T17:54:28.351Z,62.56
2018-10-12T17:56:55.793Z,63.08
2018-10-12T17:59:23.266Z,63.42
2018-10-12T18:01:50.765Z,63.58
2018-10-12T18:04:19.422Z,63.80
2018-10-12T18:06:46.881Z,63.66
2018-10-12T18:09:14.350Z,63.73
2018-10-12T18:11:41.876Z,63.63
2018-10-12T18:14:09.417Z,63.52
2018-10-12T18:16:36.968Z,63.47
2018-10-12T18:19:05.207Z,63.35
2018-10-12T18:21:33.017Z,63.36
2018-10-12T18:24:00.769Z,63.31
2018-10-12T18:26:28.374Z,63.18
2018-10-12T18:28:55.856Z,63.13
2018-10-12T18:31:23.331Z,63.16
2018-10-12T18:33:50.867Z,63.28
2018-10-12T18:36:18.361Z,63.43
2018-10-12T18:38:45.843Z,63.54
2018-10-12T18:41:13.394Z,63.58
2018-10-12T18:43:40.977Z,63.66
2018-10-12T18:46:08.422Z,63.63
2018-10-12T18:48:35.937Z,63.74
2018-10-12T18:51:04.992Z,63.80
2018-10-12T18:53:32.723Z,63.72
2018-10-12T18:56:00.297Z,63.55
2018-10-12T18:58:27.775Z,63.52
2018-10-12T19:00:55.366Z,63.38
2018-10-12T19:03:22.827Z,63.34
2018-10-12T19:05:50.312Z,63.33
2018-10-12T19:08:17.840Z,63.27
2018-10-12T19:10:45.679Z,63.13
2018-10-12T19:13:13.271Z,63.11
2018-10-12T19:15:40.720Z,63.14
2018-10-12T19:18:08.932Z,62.88
2018-10-12T19:20:36.448Z,62.53
2018-10-12T19:23:04.920Z,62.36
2018-10-12T19:25:32.365Z,62.03
2018-10-12T19:27:59.792Z,62.01
2018-10-12T19:33:31.019Z,62.39
2018-10-12T19:35:59.477Z,62.77
2018-10-12T19:41:30.408Z,63.41
2018-10-12T19:43:57.932Z,63.58
2018-10-12T19:46:25.366Z,63.74
2018-10-12T19:48:52.969Z,63.77
2018-10-12T19:51:20.414Z,63.64
2018-10-12T19:53:47.898Z,63.50
2018-10-12T19:56:15.422Z,63.38
2018-10-12T19:58:42.999Z,63.49
2018-10-12T20:01:11.551Z,63.52
2018-10-12T20:03:39.013Z,63.47
2018-10-12T20:06:06.580Z,63.38
2018-10-12T20:08:34.120Z,63.34
2018-10-12T20:11:01.580Z,63.41
2018-10-12T20:13:29.015Z,63.61
2018-10-12T20:15:56.533Z,63.60
2018-10-12T20:18:24.126Z,63.71
2018-10-12T20:20:51.691Z,63.53
2018-10-12T20:23:19.144Z,63.33
2018-10-12T20:25:46.672Z,63.56
2018-10-12T20:28:14.113Z,63.58
2018-10-12T20:30:41.618Z,63.48
2018-10-12T20:33:09.103Z,63.24
2018-10-12T20:35:36.658Z,63.04
2018-10-12T20:38:04.161Z,62.81
2018-10-12T20:40:32.205Z,63.13
2018-10-12T20:42:59.727Z,63.38
2018-10-12T20:45:27.176Z,63.50
2018-10-12T20:47:54.659Z,63.47
2018-10-12T20:50:22.156Z,63.40
2018-10-12T20:52:50.289Z,63.34
2018-10-12T20:55:17.742Z,63.45
2018-10-12T20:57:45.308Z,63.00
2018-10-12T21:00:12.790Z,62.52
2018-10-12T21:02:40.287Z,62.27
2018-10-12T21:05:07.790Z,62.15
2018-10-12T21:07:35.231Z,62.42
2018-10-12T21:10:02.932Z,62.71
2018-10-12T21:12:30.334Z,62.71
2018-10-12T21:14:57.774Z,62.65
2018-10-12T21:17:25.163Z,62.59
2018-10-12T21:19:52.716Z,62.60
2018-10-12T21:22:20.236Z,62.32
2018-10-12T21:24:47.685Z,62.65
2018-10-12T21:27:15.212Z,62.71
2018-10-12T21:29:42.912Z,62.41
2018-10-12T21:32:10.339Z,62.98
2018-10-12T21:34:37.760Z,63.35
2018-10-12T21:37:05.395Z,63.61
2018-10-12T21:39:32.853Z,63.32
2018-10-12T21:42:00.307Z,62.95
2018-10-12T21:44:27.741Z,63.24
2018-10-12T21:46:56.053Z,63.49
2018-10-12T21:49:23.499Z,63.76
2018-10-12T21:51:51.013Z,63.74
2018-10-12T21:54:18.462Z,63.28
2018-10-12T21:56:45.912Z,63.33
2018-10-12T21:59:13.429Z,63.61
2018-10-12T22:01:41.737Z,63.21
2018-10-12T22:04:09.259Z,63.43
2018-10-12T22:06:36.697Z,63.23
2018-10-12T22:09:04.255Z,63.61
2018-10-12T22:11:31.726Z,63.86
2018-10-12T22:13:59.272Z,64.13
2018-10-12T22:16:26.651Z,64.07
2018-10-12T22:18:54.133Z,64.47
2018-10-12T22:21:21.535Z,65.32
2018-10-12T22:23:49.099Z,65.78
2018-10-12T22:26:16.668Z,65.86
2018-10-12T22:28:44.156Z,65.87
2018-10-12T22:31:12.630Z,65.53
2018-10-12T22:33:41.383Z,65.37
2018-10-12T22:36:08.886Z,65.32
2018-10-12T22:38:36.400Z,65.16
2018-10-12T22:41:03.949Z,65.21
2018-10-12T22:43:31.465Z,65.43
2018-10-12T22:45:58.893Z,65.74
2018-10-12T22:48:26.352Z,65.97
2018-10-12T22:50:53.794Z,66.04
2018-10-12T22:53:21.594Z,66.08
2018-10-12T22:55:49.225Z,65.68
2018-10-12T22:58:16.708Z,65.50
2018-10-12T23:00:44.136Z,65.38
2018-10-12T23:03:11.622Z,65.86
2018-10-12T23:05:39.079Z,65.75
2018-10-12T23:08:06.675Z,65.60
2018-10-12T23:10:34.137Z,65.85
2018-10-12T23:13:01.739Z,66.14
2018-10-12T23:15:29.134Z,66.19
2018-10-12T23:17:56.583Z,66.25
2018-10-12T23:20:24.028Z,66.30
2018-10-12T23:22:51.457Z,66.45
2018-10-12T23:25:19.996Z,66.57
2018-10-12T23:27:47.412Z,66.81
2018-10-12T23:30:14.882Z,66.78
2018-10-12T23:32:42.293Z,66.73
2018-10-12T23:35:09.762Z,66.82
2018-10-12T23:37:37.205Z,67.02
2018-10-12T23:40:04.605Z,67.14
2018-10-12T23:42:32.101Z,67.18
2018-10-12T23:44:59.498Z,67.06
2018-10-12T23:47:26.999Z,67.14
2018-10-12T23:49:54.414Z,67.15
2018-10-12T23:52:21.845Z,67.17
2018-10-12T23:57:22.144Z,67.24
2018-10-12T23:59:49.628Z,67.23
